Montreal, Canada
Current Conditions -  °F | °C
As of 5:21 PM on Sunday 21 Dec 2014 (Local Time) from CYHU Reporting Station
Light Snow Light Snow  
Wind Chill:   Ceiling: 2300
Heat Index: 16°   Visibility: 2mi
Dew Point: 14°   Wind: 5mph
Humidity: 93%   Direction: 50°NE
Pressure: 30.4"   Gusts: NA
Location:  45.51°N, 73.55°W
Report Text: CYHU 212221Z AUTO 05004KT 2SM -SN OVC023 M09/M10 A3040 RMK SLP295
Loading
Personal Weather Stations






























Interactive Weather Map New forecast layout! Learn more

10-Day Weather Forecast

Advertisements
Track Severe Weather on mobile